Thea, Argentina
Current Conditions -  °F | °C
As of 4:00 PM on Thursday 30 Oct 2014 (Local Time) from SACO Reporting Station
Scattered Clouds Scattered Clouds  
Wind Chill: 25°   Ceiling: Unl
Heat Index: 25°   Visibility: 6mi
Dew Point:   Wind: 10mph
Humidity: 32%   Direction: 70°ENE
Pressure: 29.83"   Gusts: NA
Location:  31.05°S, 64.52°W
Report Text: SACO 301900Z 07009KT 9999 SCT025 25/07 Q1010
Loading
Personal Weather Stations






























Interactive Weather Map
Tropical Storm Tracking
New forecast layout! Learn more

10-Day Weather Forecast

Advertisements
Track Severe Weather on mobile